createdAt,value
2017-03-25T00:00:32.897Z,31.97
2017-03-25T00:01:31.908Z,28.93
2017-03-25T00:02:31.143Z,31.25
2017-03-25T00:03:30.118Z,29.32
2017-03-25T00:04:29.155Z,31.87
2017-03-25T00:05:27.755Z,31.22
2017-03-25T00:06:26.414Z,30.43
2017-03-25T00:07:25.443Z,31.53
2017-03-25T00:08:24.496Z,26.45
2017-03-25T00:09:23.489Z,31.20
2017-03-25T00:10:22.543Z,28.30
2017-03-25T00:11:21.568Z,31.12
2017-03-25T00:12:20.637Z,31.20
2017-03-25T00:13:19.612Z,30.68
2017-03-25T00:14:18.202Z,31.68
2017-03-25T00:15:17.257Z,30.67
2017-03-25T00:16:16.275Z,29.55
2017-03-25T00:17:16.024Z,32.30
2017-03-25T00:18:15.051Z,31.42
2017-03-25T00:19:13.671Z,31.20
2017-03-25T00:20:12.766Z,30.70
2017-03-25T00:21:11.832Z,29.95
2017-03-25T00:22:10.877Z,30.80
2017-03-25T00:23:09.842Z,30.70
2017-03-25T00:24:08.917Z,31.28
2017-03-25T00:25:07.960Z,30.17
2017-03-25T00:26:06.990Z,32.23
2017-03-25T00:27:06.401Z,29.70
2017-03-25T00:28:05.400Z,32.12
2017-03-25T00:29:04.443Z,30.12
2017-03-25T00:30:03.403Z,29.87
2017-03-25T00:31:02.516Z,29.77
2017-03-25T00:32:01.188Z,31.33
2017-03-25T00:33:00.263Z,27.87
2017-03-25T00:33:59.223Z,30.68
2017-03-25T00:34:58.186Z,28.12
2017-03-25T00:35:57.304Z,31.68
2017-03-25T00:36:56.369Z,30.22
2017-03-25T00:37:55.343Z,30.53
2017-03-25T00:38:54.019Z,30.50
2017-03-25T00:39:52.611Z,29.62
2017-03-25T00:40:51.627Z,32.28
2017-03-25T00:41:50.643Z,31.95
2017-03-25T00:42:49.717Z,32.40
2017-03-25T00:43:48.724Z,31.73
2017-03-25T00:44:47.692Z,33.58
2017-03-25T00:45:46.763Z,31.07
2017-03-25T00:46:46.101Z,31.93
2017-03-25T00:47:45.067Z,31.75
2017-03-25T00:48:44.105Z,31.35
2017-03-25T00:49:43.148Z,30.17
2017-03-25T00:50:42.167Z,32.48
2017-03-25T00:51:41.283Z,31.95
2017-03-25T00:52:40.258Z,30.75
2017-03-25T00:53:38.851Z,31.68
2017-03-25T00:54:37.889Z,30.83
2017-03-25T00:55:36.573Z,29.48
2017-03-25T00:56:35.175Z,30.08
2017-03-25T00:57:34.163Z,33.28
2017-03-25T00:58:33.127Z,30.05
2017-03-25T00:59:32.137Z,30.63
2017-03-25T01:00:31.167Z,29.87
2017-03-25T01:01:30.313Z,30.70
2017-03-25T01:02:29.302Z,28.28
2017-03-25T01:03:28.307Z,30.13
2017-03-25T01:04:27.303Z,27.47
2017-03-25T01:05:26.287Z,30.20
2017-03-25T01:06:25.416Z,31.27
2017-03-25T01:07:24.406Z,29.03
2017-03-25T01:08:23.523Z,31.82
2017-03-25T01:09:22.567Z,31.35
2017-03-25T01:10:21.603Z,29.83
2017-03-25T01:11:20.660Z,29.48
2017-03-25T01:12:19.673Z,28.48
2017-03-25T01:13:18.687Z,31.23
2017-03-25T01:14:17.677Z,30.28
2017-03-25T01:15:16.371Z,29.72
2017-03-25T01:16:15.427Z,29.83
2017-03-25T01:17:14.051Z,30.63
2017-03-25T01:18:13.024Z,28.72
2017-03-25T01:19:12.083Z,31.28
2017-03-25T01:20:11.155Z,31.33
2017-03-25T01:21:10.159Z,33.47
2017-03-25T01:22:09.111Z,29.97
2017-03-25T01:23:07.716Z,30.13
2017-03-25T01:24:06.373Z,30.42
2017-03-25T01:25:05.027Z,30.77
2017-03-25T01:26:04.118Z,29.60
2017-03-25T01:27:03.183Z,29.50
2017-03-25T01:28:02.147Z,30.17
2017-03-25T01:29:01.211Z,27.45
2017-03-25T01:30:00.286Z,31.45
2017-03-25T01:30:58.947Z,30.93
2017-03-25T01:31:57.964Z,30.82
2017-03-25T01:32:57.006Z,28.15
2017-03-25T01:33:55.982Z,28.25
2017-03-25T01:34:54.648Z,33.65
2017-03-25T01:35:53.667Z,30.60
2017-03-25T01:36:52.624Z,32.23
2017-03-25T01:37:51.391Z,30.98
2017-03-25T01:38:50.423Z,34.12
2017-03-25T01:39:49.525Z,31.35
2017-03-25T01:40:48.521Z,29.00
2017-03-25T01:41:47.528Z,30.13
2017-03-25T01:42:46.469Z,29.82
2017-03-25T01:43:45.503Z,28.95
2017-03-25T01:44:44.520Z,32.72
2017-03-25T01:45:43.503Z,32.87
2017-03-25T01:46:42.500Z,32.23
2017-03-25T01:47:41.900Z,32.67
2017-03-25T01:48:40.871Z,31.57
2017-03-25T01:49:39.952Z,31.38
2017-03-25T01:50:39.002Z,30.45
2017-03-25T01:51:38.087Z,31.10
2017-03-25T01:52:37.099Z,30.23
2017-03-25T01:53:36.103Z,30.42
2017-03-25T01:54:35.055Z,34.08
2017-03-25T01:55:34.075Z,32.02
2017-03-25T01:56:33.096Z,33.02
2017-03-25T01:57:32.120Z,32.37
2017-03-25T01:58:31.148Z,33.00
2017-03-25T01:59:30.064Z,31.67
2017-03-25T02:00:28.716Z,31.07
2017-03-25T02:01:27.391Z,31.00
2017-03-25T02:02:26.328Z,33.47
2017-03-25T02:03:25.031Z,32.18
2017-03-25T02:04:24.073Z,30.05
2017-03-25T02:05:23.107Z,29.85
2017-03-25T02:06:22.134Z,32.23
2017-03-25T02:07:21.179Z,31.17
2017-03-25T02:08:20.175Z,30.50
2017-03-25T02:09:19.308Z,30.93
2017-03-25T02:10:18.364Z,29.77
2017-03-25T02:11:17.382Z,32.43
2017-03-25T02:12:16.408Z,32.83
2017-03-25T02:13:15.452Z,31.38
2017-03-25T02:14:14.439Z,32.02
2017-03-25T02:15:13.085Z,30.43
2017-03-25T02:16:12.176Z,31.83
2017-03-25T02:17:11.227Z,31.30
2017-03-25T02:18:10.270Z,30.20
2017-03-25T02:19:09.633Z,32.52
2017-03-25T02:20:08.668Z,33.08
2017-03-25T02:21:07.672Z,30.27
2017-03-25T02:22:06.729Z,33.22
2017-03-25T02:23:05.401Z,30.45
2017-03-25T02:24:04.759Z,30.98
2017-03-25T02:25:03.740Z,30.53
2017-03-25T02:26:02.781Z,29.27
2017-03-25T02:27:01.824Z,33.17
2017-03-25T02:28:00.835Z,30.73
2017-03-25T02:28:59.883Z,33.08
2017-03-25T02:29:58.480Z,32.12
2017-03-25T02:30:57.471Z,31.22
2017-03-25T02:31:56.832Z,31.05
2017-03-25T02:32:55.851Z,30.83
2017-03-25T02:33:54.864Z,31.85
2017-03-25T02:34:53.851Z,30.67
2017-03-25T02:35:52.921Z,30.52
2017-03-25T02:36:51.959Z,32.07
2017-03-25T02:37:50.938Z,33.95
2017-03-25T02:38:49.527Z,32.48
2017-03-25T02:39:48.498Z,30.68
2017-03-25T02:40:47.552Z,31.85
2017-03-25T02:41:46.561Z,32.47
2017-03-25T02:42:45.599Z,32.20
2017-03-25T02:43:44.159Z,30.45
2017-03-25T02:44:42.927Z,33.35
2017-03-25T02:45:42.295Z,29.57
2017-03-25T02:46:41.363Z,32.63
2017-03-25T02:47:40.363Z,31.82
2017-03-25T02:48:39.335Z,31.87
2017-03-25T02:49:38.731Z,33.38
2017-03-25T02:50:37.769Z,31.48
2017-03-25T02:51:36.759Z,34.27
2017-03-25T02:52:35.793Z,31.58
2017-03-25T02:53:34.775Z,31.47
2017-03-25T02:54:33.773Z,34.03
2017-03-25T02:55:32.750Z,31.55
2017-03-25T02:56:31.384Z,30.07
2017-03-25T02:57:30.427Z,30.73
2017-03-25T02:58:29.980Z,31.25
2017-03-25T02:59:29.011Z,31.60
2017-03-25T03:00:28.024Z,29.33
2017-03-25T03:01:27.056Z,31.02
2017-03-25T03:02:26.180Z,29.30
2017-03-25T03:03:25.204Z,33.05
2017-03-25T03:04:23.755Z,32.72
2017-03-25T03:05:22.831Z,31.38
2017-03-25T03:06:21.827Z,30.80
2017-03-25T03:07:20.847Z,31.47
2017-03-25T03:08:19.873Z,31.38
2017-03-25T03:09:18.900Z,30.78
2017-03-25T03:10:17.904Z,32.35
2017-03-25T03:11:16.948Z,31.33
2017-03-25T03:12:15.988Z,30.00
2017-03-25T03:13:15.017Z,29.60
2017-03-25T03:14:13.683Z,31.32
2017-03-25T03:15:12.638Z,30.52
2017-03-25T03:16:11.696Z,30.83
2017-03-25T03:17:10.707Z,30.57
2017-03-25T03:18:10.084Z,29.55
2017-03-25T03:19:09.112Z,31.03
2017-03-25T03:20:07.784Z,30.17
2017-03-25T03:21:06.812Z,29.72
2017-03-25T03:22:05.832Z,29.13
2017-03-25T03:23:04.927Z,29.82
2017-03-25T03:24:03.933Z,30.28
2017-03-25T03:25:03.007Z,29.77
2017-03-25T03:26:02.027Z,31.15
2017-03-25T03:27:01.093Z,29.58
2017-03-25T03:28:00.065Z,30.82
2017-03-25T03:28:59.124Z,28.07
2017-03-25T03:29:57.700Z,29.02
2017-03-25T03:30:56.647Z,28.22
2017-03-25T03:31:55.662Z,26.87
2017-03-25T03:32:54.631Z,31.23
2017-03-25T03:33:53.652Z,30.83
2017-03-25T03:34:52.715Z,31.38
2017-03-25T03:35:51.707Z,31.28
2017-03-25T03:36:50.716Z,28.28
2017-03-25T03:37:49.824Z,27.78
2017-03-25T03:38:48.796Z,29.73
2017-03-25T03:39:47.379Z,32.07
2017-03-25T03:40:46.463Z,30.53
2017-03-25T03:41:45.063Z,28.13
2017-03-25T03:42:44.052Z,31.33
2017-03-25T03:43:42.999Z,31.28
2017-03-25T03:44:41.587Z,29.48
2017-03-25T03:45:40.611Z,31.03
2017-03-25T03:46:39.566Z,27.90
2017-03-25T03:47:38.955Z,30.37
2017-03-25T03:48:37.924Z,30.52
2017-03-25T03:49:36.876Z,30.12
2017-03-25T03:50:35.880Z,30.28
2017-03-25T03:51:34.879Z,32.02
2017-03-25T03:52:33.892Z,31.72
2017-03-25T03:53:32.840Z,27.92
2017-03-25T03:54:31.809Z,30.93
2017-03-25T03:55:30.867Z,31.37
2017-03-25T03:56:29.844Z,31.33
2017-03-25T03:57:28.900Z,31.12
2017-03-25T03:58:28.008Z,30.92
2017-03-25T03:59:27.047Z,30.58
2017-03-25T04:00:26.036Z,33.13
2017-03-25T04:01:25.108Z,32.80
2017-03-25T04:02:24.101Z,30.30
2017-03-25T04:03:23.124Z,30.88
2017-03-25T04:04:22.184Z,33.47
2017-03-25T04:05:21.211Z,31.58
2017-03-25T04:06:20.235Z,29.30
2017-03-25T04:07:19.296Z,31.35
2017-03-25T04:08:18.569Z,30.33
2017-03-25T04:09:17.609Z,31.18
2017-03-25T04:10:16.682Z,31.27
2017-03-25T04:11:15.776Z,31.50
2017-03-25T04:12:14.783Z,28.28
2017-03-25T04:13:13.872Z,30.75
2017-03-25T04:14:12.900Z,29.08
2017-03-25T04:15:11.957Z,30.70
2017-03-25T04:16:11.015Z,30.52
2017-03-25T04:17:10.035Z,29.10
2017-03-25T04:18:09.076Z,31.30
2017-03-25T04:19:08.116Z,31.23
2017-03-25T04:20:07.089Z,29.28
2017-03-25T04:21:06.105Z,31.48
2017-03-25T04:22:05.104Z,31.38
2017-03-25T04:23:04.147Z,30.22
2017-03-25T04:24:02.756Z,31.43
2017-03-25T04:25:01.823Z,33.13
2017-03-25T04:26:00.806Z,31.82
2017-03-25T04:26:59.756Z,31.22
2017-03-25T04:27:59.152Z,31.23
2017-03-25T04:28:58.108Z,31.07
2017-03-25T04:29:56.677Z,28.85
2017-03-25T04:30:55.813Z,28.42
2017-03-25T04:31:54.763Z,30.32
2017-03-25T04:32:53.932Z,29.60
2017-03-25T04:33:52.983Z,29.25
2017-03-25T04:34:52.036Z,29.92
2017-03-25T04:35:51.001Z,27.93
2017-03-25T04:36:50.056Z,27.37
2017-03-25T04:37:49.114Z,30.87
2017-03-25T04:38:47.767Z,29.32
2017-03-25T04:39:46.762Z,27.48
2017-03-25T04:40:45.728Z,29.90
2017-03-25T04:41:45.047Z,27.73
2017-03-25T04:42:44.006Z,27.57
2017-03-25T04:43:42.948Z,32.05
2017-03-25T04:44:41.618Z,27.28
2017-03-25T04:45:40.628Z,27.55
2017-03-25T04:46:39.598Z,28.68
2017-03-25T04:47:38.604Z,26.70
2017-03-25T04:48:37.571Z,29.93
2017-03-25T04:49:36.580Z,27.68
2017-03-25T04:50:35.948Z,29.78
2017-03-25T04:51:34.931Z,26.58
2017-03-25T04:52:34.056Z,27.05
2017-03-25T04:53:33.020Z,27.32
2017-03-25T04:54:31.969Z,26.18
2017-03-25T04:55:31.007Z,26.73
2017-03-25T04:56:29.628Z,28.60
2017-03-25T04:57:28.718Z,28.00
2017-03-25T04:58:27.999Z,26.65
2017-03-25T04:59:26.959Z,26.82
2017-03-25T05:00:26.003Z,27.77
2017-03-25T05:01:24.962Z,26.97
2017-03-25T05:02:24.015Z,27.83
2017-03-25T05:03:23.048Z,28.85
2017-03-25T05:04:22.024Z,25.25
2017-03-25T05:05:21.048Z,26.68
2017-03-25T05:06:20.063Z,28.12
2017-03-25T05:07:19.063Z,26.58
2017-03-25T05:08:18.075Z,25.42
2017-03-25T05:09:17.143Z,26.72
2017-03-25T05:10:16.127Z,28.05
2017-03-25T05:11:15.124Z,25.22
2017-03-25T05:12:14.151Z,24.30
2017-03-25T05:13:13.201Z,26.77
2017-03-25T05:14:12.256Z,25.78
2017-03-25T05:15:11.222Z,26.60
2017-03-25T05:16:10.260Z,26.42
2017-03-25T05:17:09.348Z,28.65
2017-03-25T05:18:07.993Z,24.68
2017-03-25T05:19:06.964Z,26.65
2017-03-25T05:20:05.913Z,26.30
2017-03-25T05:21:04.953Z,26.70
2017-03-25T05:22:03.963Z,24.20
2017-03-25T05:23:02.949Z,26.20
2017-03-25T05:24:02.354Z,24.80
2017-03-25T05:25:01.318Z,26.72
2017-03-25T05:26:00.317Z,25.90
2017-03-25T05:26:59.304Z,25.62
2017-03-25T05:27:58.239Z,27.85
2017-03-25T05:28:57.188Z,26.02
2017-03-25T05:29:56.158Z,25.65
2017-03-25T05:30:55.191Z,26.13
2017-03-25T05:31:54.171Z,25.08
2017-03-25T05:32:53.119Z,27.67
2017-03-25T05:33:51.732Z,25.32
2017-03-25T05:34:50.703Z,23.88
2017-03-25T05:35:49.720Z,24.63
2017-03-25T05:36:48.651Z,26.45
2017-03-25T05:37:47.627Z,22.63
2017-03-25T05:38:46.688Z,24.50
2017-03-25T05:39:45.687Z,24.95
2017-03-25T05:40:44.670Z,23.53
2017-03-25T05:41:43.749Z,24.08
2017-03-25T05:42:42.314Z,25.90
2017-03-25T05:43:41.296Z,25.05
2017-03-25T05:44:40.399Z,24.62
2017-03-25T05:45:39.416Z,25.83
2017-03-25T05:46:38.383Z,23.15
2017-03-25T05:47:37.379Z,26.45
2017-03-25T05:48:36.328Z,25.15
2017-03-25T05:49:35.334Z,24.23
2017-03-25T05:50:34.311Z,25.12
2017-03-25T05:51:34.039Z,25.40
2017-03-25T05:52:33.011Z,22.45
2017-03-25T05:53:32.004Z,23.62
2017-03-25T05:54:30.990Z,26.68
2017-03-25T05:55:30.003Z,24.18
2017-03-25T05:56:28.995Z,24.78
2017-03-25T05:57:27.862Z,25.65
2017-03-25T05:58:26.825Z,24.78
2017-03-25T05:59:25.832Z,24.92
2017-03-25T06:00:25.203Z,24.82
2017-03-25T06:01:24.183Z,25.17
2017-03-25T06:02:27.368Z,25.07
2017-03-25T06:03:26.305Z,24.70
2017-03-25T06:04:25.332Z,23.67
2017-03-25T06:05:24.323Z,24.75
2017-03-25T06:06:23.355Z,24.15
2017-03-25T06:07:22.344Z,24.50
2017-03-25T06:08:21.380Z,25.98
2017-03-25T06:09:20.412Z,23.40
2017-03-25T06:10:19.400Z,25.17
2017-03-25T06:11:18.429Z,23.05
2017-03-25T06:12:17.543Z,26.28
2017-03-25T06:13:16.599Z,26.33
2017-03-25T06:14:15.240Z,25.95
2017-03-25T06:15:14.207Z,23.83
2017-03-25T06:16:13.155Z,25.00
2017-03-25T06:17:12.546Z,26.17
2017-03-25T06:18:11.096Z,26.45
2017-03-25T06:19:10.059Z,25.87
2017-03-25T06:20:09.059Z,24.78
2017-03-25T06:21:08.482Z,24.93
2017-03-25T06:22:07.549Z,25.25
2017-03-25T06:23:06.500Z,21.70
2017-03-25T06:24:05.580Z,24.47
2017-03-25T06:25:04.532Z,24.67
2017-03-25T06:26:03.570Z,27.47
2017-03-25T06:27:02.967Z,24.67
2017-03-25T06:28:01.923Z,22.98
2017-03-25T06:29:00.976Z,21.88
2017-03-25T06:29:59.548Z,25.83
2017-03-25T06:30:58.952Z,23.27
2017-03-25T06:31:57.903Z,24.28
2017-03-25T06:32:56.944Z,23.63
2017-03-25T06:33:55.928Z,25.70
2017-03-25T06:34:54.930Z,23.25
2017-03-25T06:35:53.935Z,25.35
2017-03-25T06:36:52.911Z,24.77
2017-03-25T06:37:51.954Z,24.98
2017-03-25T06:38:50.959Z,25.83
2017-03-25T06:39:49.945Z,25.10
2017-03-25T06:40:49.012Z,23.55
2017-03-25T06:41:47.958Z,24.07
2017-03-25T06:42:46.973Z,25.13
2017-03-25T06:43:45.598Z,24.17
2017-03-25T06:44:44.576Z,25.20
2017-03-25T06:45:43.154Z,25.43
2017-03-25T06:46:41.759Z,25.73
2017-03-25T06:47:40.759Z,26.33
2017-03-25T06:48:39.716Z,26.10
2017-03-25T06:49:38.776Z,25.32
2017-03-25T06:50:37.342Z,25.50
2017-03-25T06:51:36.337Z,25.55
2017-03-25T06:52:35.372Z,25.62
2017-03-25T06:53:34.374Z,26.25
2017-03-25T06:54:34.185Z,26.47
2017-03-25T06:55:33.159Z,24.20
2017-03-25T06:56:31.727Z,25.55
2017-03-25T06:57:30.543Z,25.33
2017-03-25T06:58:29.592Z,24.98
2017-03-25T06:59:28.189Z,25.47
2017-03-25T07:00:27.236Z,24.30
2017-03-25T07:01:26.312Z,23.53
2017-03-25T07:02:25.313Z,25.77
2017-03-25T07:03:24.320Z,26.35
2017-03-25T07:04:23.448Z,27.07
2017-03-25T07:05:22.449Z,26.60
2017-03-25T07:06:21.412Z,25.88
2017-03-25T07:07:20.472Z,25.30
2017-03-25T07:08:19.376Z,24.32
2017-03-25T07:09:18.404Z,26.32
2017-03-25T07:10:17.010Z,25.67
2017-03-25T07:11:15.967Z,25.18
2017-03-25T07:12:14.602Z,26.58
2017-03-25T07:13:13.517Z,24.42
2017-03-25T07:14:12.531Z,26.88
2017-03-25T07:15:11.547Z,25.47
2017-03-25T07:16:10.514Z,25.42
2017-03-25T07:17:09.578Z,26.28
2017-03-25T07:18:08.539Z,27.57
2017-03-25T07:19:07.543Z,24.75
2017-03-25T07:20:06.134Z,24.68
2017-03-25T07:21:04.795Z,27.10
2017-03-25T07:22:03.815Z,27.10
2017-03-25T07:23:02.739Z,25.45
2017-03-25T07:24:01.740Z,26.57
2017-03-25T07:25:00.670Z,27.08
2017-03-25T07:25:59.696Z,27.13
2017-03-25T07:26:58.301Z,26.30
2017-03-25T07:27:57.313Z,26.08
2017-03-25T07:28:55.925Z,24.03
2017-03-25T07:29:54.939Z,26.30
2017-03-25T07:30:53.944Z,27.15
2017-03-25T07:31:52.507Z,28.22
2017-03-25T07:32:51.503Z,27.52
2017-03-25T07:33:50.450Z,26.03
2017-03-25T07:34:49.798Z,26.65
2017-03-25T07:35:48.803Z,27.27
2017-03-25T07:36:47.786Z,24.15
2017-03-25T07:37:46.750Z,25.87
2017-03-25T07:38:45.413Z,25.90
2017-03-25T07:39:44.384Z,27.75
2017-03-25T07:40:43.364Z,26.18
2017-03-25T07:41:41.996Z,24.77
2017-03-25T07:42:40.985Z,26.47
2017-03-25T07:43:40.400Z,25.62
2017-03-25T07:44:39.451Z,26.78
2017-03-25T07:45:38.423Z,25.60
2017-03-25T07:46:37.502Z,26.08
2017-03-25T07:47:36.459Z,24.93
2017-03-25T07:48:35.456Z,26.98
2017-03-25T07:49:34.416Z,25.37
2017-03-25T07:50:33.477Z,24.25
2017-03-25T07:51:32.472Z,25.87
2017-03-25T07:52:31.056Z,26.15
2017-03-25T07:53:30.053Z,24.55
2017-03-25T07:54:29.047Z,25.38
2017-03-25T07:55:28.384Z,22.82
2017-03-25T07:56:27.407Z,25.65
2017-03-25T07:57:26.089Z,25.00
2017-03-25T07:58:25.071Z,24.25
2017-03-25T07:59:24.072Z,26.47
2017-03-25T08:00:23.091Z,26.17
2017-03-25T08:01:22.075Z,23.28
2017-03-25T08:02:21.094Z,27.87
2017-03-25T08:03:20.147Z,25.28
2017-03-25T08:04:18.740Z,24.17
2017-03-25T08:05:17.798Z,25.60
2017-03-25T08:06:16.800Z,23.73
2017-03-25T08:07:15.794Z,25.58
2017-03-25T08:08:14.790Z,25.77
2017-03-25T08:09:13.750Z,26.05
2017-03-25T08:10:12.779Z,25.60
2017-03-25T08:11:11.792Z,25.82
2017-03-25T08:12:10.807Z,25.58
2017-03-25T08:13:09.791Z,25.18
2017-03-25T08:14:08.835Z,25.40
2017-03-25T08:15:07.827Z,24.85
2017-03-25T08:16:06.831Z,25.48
2017-03-25T08:17:05.847Z,26.33
2017-03-25T08:18:04.919Z,23.47
2017-03-25T08:19:03.941Z,25.37
2017-03-25T08:20:03.321Z,25.13
2017-03-25T08:21:02.351Z,27.95
2017-03-25T08:22:02.490Z,26.33
2017-03-25T08:23:01.435Z,27.00
2017-03-25T08:24:00.505Z,25.83
2017-03-25T08:24:59.492Z,25.98
2017-03-25T08:25:58.495Z,25.00
2017-03-25T08:26:57.434Z,23.83
2017-03-25T08:27:56.044Z,25.58
2017-03-25T08:28:55.044Z,26.00
2017-03-25T08:29:54.048Z,24.48
2017-03-25T08:30:53.076Z,24.42
2017-03-25T08:31:51.693Z,23.13
2017-03-25T08:32:50.736Z,26.42
2017-03-25T08:33:49.740Z,24.17
2017-03-25T08:34:48.723Z,25.72
2017-03-25T08:35:47.736Z,27.25
2017-03-25T08:36:46.731Z,25.37
2017-03-25T08:37:45.339Z,25.23
2017-03-25T08:38:44.300Z,26.27
2017-03-25T08:39:42.927Z,24.07
2017-03-25T08:40:41.859Z,26.83
2017-03-25T08:41:40.860Z,23.20
2017-03-25T08:42:39.805Z,23.73
2017-03-25T08:43:39.196Z,25.28
2017-03-25T08:44:38.164Z,24.35
2017-03-25T08:45:37.148Z,22.78
2017-03-25T08:46:35.719Z,23.67
2017-03-25T08:47:34.744Z,24.68
2017-03-25T08:48:33.729Z,24.32
2017-03-25T08:49:32.723Z,23.27
2017-03-25T08:50:31.362Z,22.73
2017-03-25T08:51:30.380Z,23.98
2017-03-25T08:52:29.743Z,23.42
2017-03-25T08:53:28.717Z,25.27
2017-03-25T08:54:27.733Z,24.07
2017-03-25T08:55:26.779Z,23.77
2017-03-25T08:56:25.745Z,21.98
2017-03-25T08:57:24.796Z,22.95
2017-03-25T08:58:24.172Z,24.75
2017-03-25T08:59:23.149Z,25.62
2017-03-25T09:00:22.214Z,24.67
2017-03-25T09:01:21.674Z,24.25
2017-03-25T09:02:20.711Z,23.88
2017-03-25T09:03:19.692Z,22.80
2017-03-25T09:04:18.737Z,22.20
2017-03-25T09:05:17.308Z,25.32
2017-03-25T09:06:16.336Z,25.83
2017-03-25T09:07:15.365Z,23.43
2017-03-25T09:08:14.379Z,23.90
2017-03-25T09:09:13.342Z,23.37
2017-03-25T09:10:12.376Z,23.12
2017-03-25T09:11:11.064Z,22.72
2017-03-25T09:12:09.675Z,21.40
2017-03-25T09:13:08.680Z,21.90
2017-03-25T09:14:07.800Z,23.15
2017-03-25T09:15:06.788Z,22.08
2017-03-25T09:16:05.823Z,21.95
2017-03-25T09:17:04.797Z,23.28
2017-03-25T09:18:03.984Z,21.25
2017-03-25T09:19:03.003Z,22.82
2017-03-25T09:20:02.020Z,22.93
2017-03-25T09:21:00.628Z,24.52
2017-03-25T09:21:59.611Z,21.27
2017-03-25T09:22:58.291Z,23.00
2017-03-25T09:23:56.885Z,22.87
2017-03-25T09:24:55.881Z,23.73
2017-03-25T09:25:54.868Z,22.67
2017-03-25T09:26:53.875Z,21.68
2017-03-25T09:27:52.824Z,25.15
2017-03-25T09:28:51.837Z,21.63
2017-03-25T09:29:50.754Z,21.83
2017-03-25T09:30:49.811Z,24.83
2017-03-25T09:31:48.767Z,22.48
2017-03-25T09:32:47.811Z,23.77
2017-03-25T09:33:46.773Z,22.40
2017-03-25T09:34:45.786Z,20.85
2017-03-25T09:35:44.755Z,23.48
2017-03-25T09:36:43.368Z,20.88
2017-03-25T09:37:42.376Z,22.78
2017-03-25T09:38:41.354Z,24.48
2017-03-25T09:39:40.323Z,21.33
2017-03-25T09:40:39.301Z,20.55
2017-03-25T09:41:38.319Z,23.37
2017-03-25T09:42:37.369Z,21.30
2017-03-25T09:43:36.352Z,23.32
2017-03-25T09:44:35.356Z,23.35
2017-03-25T09:45:34.286Z,23.12
2017-03-25T09:46:32.928Z,22.48
2017-03-25T09:47:31.862Z,21.55
2017-03-25T09:48:30.924Z,21.45
2017-03-25T09:49:29.511Z,22.13
2017-03-25T09:50:28.520Z,22.80
2017-03-25T09:51:27.518Z,22.98
2017-03-25T09:52:26.623Z,21.02
2017-03-25T09:53:25.623Z,19.73
2017-03-25T09:54:24.249Z,22.38
2017-03-25T09:55:23.474Z,22.47
2017-03-25T09:56:22.475Z,19.75
2017-03-25T09:57:21.436Z,21.77
2017-03-25T09:58:20.472Z,23.60
2017-03-25T09:59:19.443Z,21.85
2017-03-25T10:00:18.532Z,22.00
2017-03-25T10:01:17.520Z,22.68
2017-03-25T10:02:16.568Z,22.08
2017-03-25T10:03:15.546Z,22.68
2017-03-25T10:04:14.588Z,23.63
2017-03-25T10:05:13.611Z,22.97
2017-03-25T10:06:12.625Z,22.32
2017-03-25T10:07:11.653Z,21.75
2017-03-25T10:08:10.729Z,20.70
2017-03-25T10:09:09.730Z,21.38
2017-03-25T10:10:08.824Z,22.32
2017-03-25T10:11:07.493Z,21.65
2017-03-25T10:12:06.545Z,22.70
2017-03-25T10:13:05.652Z,21.28
2017-03-25T10:14:04.676Z,21.37
2017-03-25T10:15:04.097Z,21.00
2017-03-25T10:16:03.115Z,19.90
2017-03-25T10:17:02.132Z,20.60
2017-03-25T10:18:01.237Z,20.38
2017-03-25T10:19:00.224Z,20.73
2017-03-25T10:19:59.197Z,22.48
2017-03-25T10:20:58.211Z,20.35
2017-03-25T10:21:57.335Z,21.90
2017-03-25T10:22:56.353Z,20.83
2017-03-25T10:23:54.964Z,20.97
2017-03-25T10:24:53.986Z,20.70
2017-03-25T10:25:53.068Z,20.37
2017-03-25T10:26:52.072Z,21.28
2017-03-25T10:27:50.676Z,20.58
2017-03-25T10:28:49.657Z,19.25
2017-03-25T10:29:48.676Z,20.18
2017-03-25T10:30:47.668Z,21.25
2017-03-25T10:31:46.719Z,21.95
2017-03-25T10:32:45.840Z,20.05
2017-03-25T10:33:44.837Z,20.72
2017-03-25T10:34:43.944Z,19.95
2017-03-25T10:35:43.351Z,20.88
2017-03-25T10:36:42.333Z,19.18
2017-03-25T10:37:41.700Z,22.88
2017-03-25T10:38:40.672Z,20.67
2017-03-25T10:39:39.246Z,23.28
2017-03-25T10:40:38.278Z,21.25
2017-03-25T10:41:37.293Z,21.75
2017-03-25T10:42:35.896Z,21.35
2017-03-25T10:43:34.988Z,20.52
2017-03-25T10:44:34.015Z,19.80
2017-03-25T10:45:33.409Z,19.90
2017-03-25T10:46:32.338Z,20.28
2017-03-25T10:47:30.962Z,21.20
2017-03-25T10:48:29.912Z,20.73
2017-03-25T10:49:29.312Z,20.73
2017-03-25T10:50:28.307Z,19.97
2017-03-25T10:51:27.324Z,21.92
2017-03-25T10:52:26.293Z,21.18
2017-03-25T10:53:25.285Z,20.12
2017-03-25T10:54:24.368Z,21.30
2017-03-25T10:55:23.428Z,21.32
2017-03-25T10:56:22.026Z,21.85
2017-03-25T10:57:20.688Z,21.10
2017-03-25T10:58:19.352Z,21.65
2017-03-25T10:59:18.342Z,19.92
2017-03-25T11:00:17.296Z,22.35
2017-03-25T11:01:16.416Z,21.67
2017-03-25T11:02:15.023Z,21.27
2017-03-25T11:03:14.053Z,21.42
2017-03-25T11:04:13.054Z,20.75
2017-03-25T11:05:11.632Z,20.67
2017-03-25T11:06:10.221Z,19.87
2017-03-25T11:07:09.273Z,21.73
2017-03-25T11:08:08.803Z,20.13
2017-03-25T11:09:07.380Z,21.55
2017-03-25T11:10:06.448Z,20.50
2017-03-25T11:11:05.503Z,20.57
2017-03-25T11:12:04.119Z,20.60
2017-03-25T11:13:02.804Z,19.47
2017-03-25T11:14:01.788Z,17.95
2017-03-25T11:15:00.837Z,20.03
2017-03-25T11:15:59.852Z,18.90
2017-03-25T11:16:58.873Z,19.92
2017-03-25T11:17:57.868Z,19.83
2017-03-25T11:18:56.967Z,20.58
2017-03-25T11:19:56.291Z,20.10
2017-03-25T11:20:55.200Z,19.10
2017-03-25T11:21:54.565Z,19.38
2017-03-25T11:22:53.929Z,20.07
2017-03-25T11:23:53.419Z,19.28
2017-03-25T11:24:52.445Z,18.55
2017-03-25T11:25:51.432Z,18.30
2017-03-25T11:26:50.439Z,18.30
2017-03-25T11:27:49.433Z,18.02
2017-03-25T11:28:48.461Z,18.20
2017-03-25T11:29:47.040Z,18.85
2017-03-25T11:30:45.699Z,18.95
2017-03-25T11:31:44.298Z,19.25
2017-03-25T11:32:43.249Z,18.18
2017-03-25T11:33:42.276Z,17.97
2017-03-25T11:34:41.272Z,18.30
2017-03-25T11:35:40.271Z,18.65
2017-03-25T11:36:39.264Z,19.00
2017-03-25T11:37:38.271Z,19.38
2017-03-25T11:38:37.644Z,17.02
2017-03-25T11:39:36.645Z,17.53
2017-03-25T11:40:35.668Z,17.12
2017-03-25T11:41:34.267Z,17.65
2017-03-25T11:42:33.312Z,18.47
2017-03-25T11:43:31.901Z,17.72
2017-03-25T11:44:30.899Z,17.18
2017-03-25T11:45:29.916Z,16.63
2017-03-25T11:46:28.921Z,17.58
2017-03-25T11:47:28.265Z,17.33
2017-03-25T11:48:27.376Z,17.12
2017-03-25T11:49:26.333Z,17.47
2017-03-25T11:50:25.334Z,16.13
2017-03-25T11:51:24.367Z,17.43
2017-03-25T11:52:23.353Z,18.92
2017-03-25T11:53:22.048Z,17.93
2017-03-25T11:54:21.121Z,17.53
2017-03-25T11:55:20.140Z,18.03
2017-03-25T11:56:19.217Z,17.43
2017-03-25T11:57:18.252Z,18.50
2017-03-25T11:58:17.393Z,17.17
2017-03-25T11:59:16.377Z,16.83
2017-03-25T12:00:15.807Z,17.03
2017-03-25T12:01:14.427Z,18.05
2017-03-25T12:02:13.553Z,17.40
2017-03-25T12:03:12.593Z,18.68
2017-03-25T12:04:12.349Z,17.63
2017-03-25T12:05:11.794Z,16.47
2017-03-25T12:06:10.843Z,16.78
2017-03-25T12:07:09.623Z,17.80
2017-03-25T12:08:08.806Z,17.42
2017-03-25T12:09:07.894Z,16.48
2017-03-25T12:10:06.910Z,17.32
2017-03-25T12:11:06.019Z,16.43
2017-03-25T12:12:05.105Z,16.45
2017-03-25T12:13:04.128Z,15.42
2017-03-25T12:14:03.463Z,16.08
2017-03-25T12:15:02.442Z,14.88
2017-03-25T12:16:01.420Z,15.82
2017-03-25T12:17:00.420Z,15.93
2017-03-25T12:17:59.407Z,16.53
2017-03-25T12:18:57.975Z,15.97
2017-03-25T12:19:57.801Z,16.00
2017-03-25T12:20:56.792Z,15.68
2017-03-25T12:21:55.797Z,16.07
2017-03-25T12:22:54.782Z,16.15
2017-03-25T12:23:53.808Z,17.57
2017-03-25T12:24:52.749Z,14.02
2017-03-25T12:25:51.414Z,15.42
2017-03-25T12:26:50.408Z,14.47
2017-03-25T12:27:49.464Z,15.37
2017-03-25T12:28:48.095Z,13.82
2017-03-25T12:29:46.712Z,13.98
2017-03-25T12:30:45.651Z,14.88
2017-03-25T12:31:44.291Z,14.78
2017-03-25T12:32:43.660Z,16.02
2017-03-25T12:33:42.675Z,16.20
2017-03-25T12:34:41.257Z,15.27
2017-03-25T12:35:40.276Z,16.43
2017-03-25T12:36:39.288Z,15.13
2017-03-25T12:37:38.313Z,15.90
2017-03-25T12:38:37.281Z,14.95
2017-03-25T12:39:36.299Z,14.85